• Join FlightAware (Why Join?)
  • Login
  • US Flag 
02:48PM EDT


 

Airport Tracker/Info


-or-


 

Live Flight TrackerFlight Track Log ✈ UAL5835 ✈ 11-May-2013 ✈ CYUL - KIAD

Flight Track Log - Related Links

Times and Time Zones

All times are in EDT time to prevent confusion due to time zone crossing. See the UAL5835 flight status page for this flight to view local times or setup timezone preferences in your user account.

Time Position Orientation Groundspeed Altitude Reporting Facility
EDT Latitude Longitude Course Direction KTS MPH feet Rate Location/Type
02:16PM 45.4497 -73.7475 183° South 451 519 1,200  Level Boston Center
02:17PM 45.4167 -73.7500 183° South 160 184 2,200 1,860 Climbing Montreal Center
02:18PM 45.3833 -73.8000 227° Southwest 210 242 4,000 2,460 Climbing Montreal Center
02:19PM 45.3167 -73.8167 190° South 240 276 7,200 2,820 Climbing Montreal Center
02:20PM 45.2500 -73.8667 208° Southwest 240 276 9,700 1,680 Climbing Montreal Center
02:21PM 45.1667 -73.9000 196° South 300 345 10,600 1,200 Climbing Montreal Center
02:22PM 45.0833 -73.9500 203° Southwest 330 380 12,100 1,560 Climbing Montreal Center
02:23PM 45.0000 -74.0000 203° Southwest 340 391 13,800 1,860 Climbing Montreal Center
02:24PM 44.9000 -74.0333 193° South 340 391 15,900 1,860 Climbing Montreal Center
02:25PM 44.8167 -74.0833 203° Southwest 340 391 17,600 1,800 Climbing Montreal Center
02:25PM 44.7972 -74.1044 218° Southwest 344 396 18,700 1,800 Climbing Boston Center
02:26PM 44.7047 -74.1692 206° Southwest 344 396 20,400 1,620 Climbing Boston Center
02:27PM 44.6364 -74.2633 224° Southwest 344 396 22,000 1,500 Climbing Boston Center
02:28PM 44.5706 -74.3547 225° Southwest 344 396 23,700 1,680 Climbing Boston Center
02:29PM 44.4917 -74.4597 224° Southwest 333 383 25,700 1,560 Climbing Boston Center
02:30PM 44.4256 -74.5447 223° Southwest 327 376 26,900 1,140 Climbing Boston Center
02:31PM 44.3572 -74.6322 222° Southwest 327 376 28,000 1,020 Climbing Boston Center
02:32PM 44.2928 -74.7228 225° Southwest 333 383 29,000 840 Climbing Boston Center
02:34PM 44.2242 -74.8158 224° Southwest 333 383 29,900 420 Climbing Boston Center
02:35PM 44.1406 -74.9311 225° Southwest 344 396 30,000  Climbing Boston Center
02:36PM 44.0719 -75.0206 223° Southwest 365 420 30,000  Level Boston Center
02:37PM 43.9925 -75.1239 223° Southwest 380 437 30,000  Level Boston Center
02:38PM 43.9169 -75.2272 225° Southwest 385 443 30,000  Level Boston Center
02:39PM 43.8417 -75.3275 224° Southwest 385 443 30,000  Level Boston Center
02:40PM 43.7639 -75.4272 223° Southwest 385 443 30,000  Level Boston Center
02:41PM 43.6883 -75.5297 224° Southwest 380 437 30,000  Level Boston Center
02:42PM 43.6128 -75.6292 224° Southwest 380 437 30,000  Level Boston Center
02:43PM 43.5347 -75.7281 223° Southwest 380 437 30,000  Level Boston Center
02:44PM 43.4589 -75.8300 224° Southwest 380 437 30,000  Level Boston Center
02:46PM 43.2667 -76.0333 218° Southwest 380 437 30,000  Level Montreal Center
02:47PM 43.2000 -76.1333 228° Southwest 380 437 30,000  Level Montreal Center
02:48PM 43.1289 -76.2361 227° Southwest 380 437 30,000  Level Cleveland Center
02:49PM 43.0400 -76.3106 211° Southwest 380 437 30,000  Level Cleveland Center
02:50PM 42.9489 -76.3847 211° Southwest 380 437 30,000  Level Cleveland Center
02:51PM 42.8578 -76.4589 211° Southwest 380 437 30,000  Level Cleveland Center
02:52PM 42.7750 -76.5233 210° Southwest 388 447 30,000  Level New York Center
02:53PM 42.6925 -76.5894 211° Southwest 383 441 30,000 -360 Level New York Center
02:54PM 42.5994 -76.6628 210° Southwest 383 441 29,400 -900 Descending New York Center
02:55PM 42.5061 -76.7414 212° Southwest 394 453 28,300 -720 Descending New York Center
02:56PM 42.4086 -76.8194 211° Southwest 404 465 28,000 -180 Descending New York Center
02:57PM 42.3153 -76.8950 211° Southwest 404 465 28,000  Level New York Center
02:58PM 42.2217 -76.9706 211° Southwest 404 465 28,000  Level New York Center
02:59PM 42.1261 -77.0453 210° Southwest 404 465 28,000  Level New York Center
03:00PM 42.0369 -77.1206 212° Southwest 404 465 28,000  Level New York Center
03:01PM 41.9392 -77.1950 210° Southwest 404 465 28,000  Level New York Center
03:02PM 41.8436 -77.2692 210° Southwest 404 465 28,000  Level New York Center
03:03PM 41.7475 -77.3461 211° Southwest 404 465 28,000  Level New York Center
03:04PM 41.6539 -77.4231 212° Southwest 404 465 28,000  Level New York Center
03:05PM 41.5581 -77.4967 210° Southwest 404 465 28,000  Level New York Center
03:06PM 41.4578 -77.5725 210° Southwest 404 465 28,000 -360 Level New York Center
03:07PM 41.3531 -77.6558 211° Southwest 409 471 27,300 -900 Descending New York Center
03:08PM 41.2525 -77.7339 210° Southwest 409 471 26,300 -1,080 Descending New York Center
03:09PM 41.1544 -77.8094 210° Southwest 409 471 25,200 -840 Descending New York Center
03:10PM 41.0669 -77.8775 210° Southwest 398 458 24,600 -840 Descending New York Center
03:11PM 40.9883 -77.9353 209° Southwest 360 414 23,600 -1,020 Descending New York Center
03:12PM 40.9053 -77.9678 196° South 315 362 22,600 -1,080 Descending New York Center
03:13PM 40.8239 -77.8986 147° Southeast 305 351 21,500 -1,080 Descending New York Center
03:14PM 40.7458 -77.8111 140° Southeast 321 369 20,500 -1,020 Descending New York Center
03:15PM 40.6711 -77.7322 141° Southeast 332 382 19,500 -780 Descending New York Center
03:16PM 40.5903 -77.6531 143° Southeast 351 404 19,000 -300 Descending New York Center
03:17PM 40.5183 -77.5639 137° Southeast 356 410 19,000  Level New York Center
03:18PM 40.4531 -77.4675 132° Southeast 356 410 19,000 -720 Level New York Center
03:19PM 40.3856 -77.3708 132° Southeast 356 410 17,600 -960 Descending New York Center
03:20PM 40.3239 -77.2778 131° Southeast 350 403 17,100 -360 Descending New York Center
03:21PM 40.2714 -77.1722 123° Southeast 340 391 17,000 -540 Descending New York Center
03:23PM 40.1522 -76.9792 129° Southeast 339 390 15,600 -720 Descending New York Center
03:24PM 40.0800 -76.9294 152° Southeast 327 376 15,000 -360 Descending New York Center
03:25PM 39.9956 -76.8650 150° Southeast 322 371 15,000 -120 Level New York Center
03:27PM 39.8167 -76.7833 161° South 311 358 14,700 -420 Descending Potomac TRACON
03:28PM 39.7333 -76.8000 189° South 311 358 13,700 -840 Descending Potomac TRACON
03:29PM 39.6500 -76.8333 197° South 301 346 13,200 -660 Descending Potomac TRACON
03:30PM 39.5833 -76.8667 201° Southwest 277 319 12,500 -660 Descending Potomac TRACON
03:31PM 39.5167 -76.9167 210° Southwest 278 320 11,900 -1,200 Descending Potomac TRACON
03:32PM 39.4333 -76.9500 197° South 266 306 10,000 -2,040 Descending Potomac TRACON
03:33PM 39.3833 -76.9833 207° Southwest 264 304 7,900 -2,280 Descending Potomac TRACON
03:34PM 39.3167 -77.0333 210° Southwest 242 278 5,700 -1,500 Descending Potomac TRACON
03:35PM 39.2833 -77.0833 229° Southwest 226 260 4,900 -600 Descending Potomac TRACON
03:36PM 39.2333 -77.1500 226° Southwest 220 253 4,600 -480 Descending Potomac TRACON
03:37PM 39.2000 -77.2167 237° Southwest 228 262 4,000 -360 Descending Potomac TRACON
03:38PM 39.1833 -77.2833 252° West 203 234 4,000 -420 Level Potomac TRACON
03:39PM 39.1667 -77.3500 252° West 196 226 3,200 -900 Descending Potomac TRACON
03:40PM 39.1500 -77.4000 247° West 210 242 2,200 -600 Descending Potomac TRACON
03:41PM 39.1000 -77.4333 207° Southwest 193 222 2,000 -180 Descending Potomac TRACON
03:42PM 39.0500 -77.4333 180° South 178 205 1,900 -420 Descending Potomac TRACON
03:43PM 39.0000 -77.4333 180° South 136 157 1,200 -660 Descending Potomac TRACON
03:44PM 38.9667 -77.4333 180° South 132 152 600 -600 Descending Potomac TRACON